sensor_id;sensor_type;location;lat;lon;timestamp;P1;durP1;ratioP1;P2;durP2;ratioP2
4112;SDS011;2070;51.042;7.056;2023-03-01T00:01:09;12.97;;;4.00;;
4112;SDS011;2070;51.042;7.056;2023-03-01T00:03:34;8.17;;;5.20;;
4112;SDS011;2070;51.042;7.056;2023-03-01T00:06:00;12.70;;;4.03;;
4112;SDS011;2070;51.042;7.056;2023-03-01T00:08:25;9.97;;;6.00;;
4112;SDS011;2070;51.042;7.056;2023-03-01T00:11:51;4.43;;;3.50;;
4112;SDS011;2070;51.042;7.056;2023-03-01T00:13:46;14.97;;;5.07;;
4112;SDS011;2070;51.042;7.056;2023-03-01T00:16:16;10.90;;;4.40;;
4112;SDS011;2070;51.042;7.056;2023-03-01T00:18:42;7.70;;;4.30;;
4112;SDS011;2070;51.042;7.056;2023-03-01T00:21:07;6.90;;;4.90;;
4112;SDS011;2070;51.042;7.056;2023-03-01T00:23:36;4.57;;;3.93;;
4112;SDS011;2070;51.042;7.056;2023-03-01T00:26:01;11.10;;;5.20;;
4112;SDS011;2070;51.042;7.056;2023-03-01T00:28:26;12.10;;;4.90;;
4112;SDS011;2070;51.042;7.056;2023-03-01T00:30:51;7.27;;;5.07;;
4112;SDS011;2070;51.042;7.056;2023-03-01T00:33:17;8.17;;;4.70;;
4112;SDS011;2070;51.042;7.056;2023-03-01T00:35:42;4.17;;;3.50;;
4112;SDS011;2070;51.042;7.056;2023-03-01T00:38:07;6.80;;;3.80;;
4112;SDS011;2070;51.042;7.056;2023-03-01T00:40:33;4.43;;;4.03;;
4112;SDS011;2070;51.042;7.056;2023-03-01T00:42:59;9.90;;;5.17;;
4112;SDS011;2070;51.042;7.056;2023-03-01T00:45:24;8.10;;;4.80;;
4112;SDS011;2070;51.042;7.056;2023-03-01T00:47:50;8.57;;;4.80;;
4112;SDS011;2070;51.042;7.056;2023-03-01T00:50:16;10.33;;;4.43;;
4112;SDS011;2070;51.042;7.056;2023-03-01T00:52:41;9.50;;;5.57;;
4112;SDS011;2070;51.042;7.056;2023-03-01T00:55:07;9.93;;;4.47;;
4112;SDS011;2070;51.042;7.056;2023-03-01T00:57:32;11.80;;;6.67;;
4112;SDS011;2070;51.042;7.056;2023-03-01T00:59:58;7.43;;;4.90;;
4112;SDS011;2070;51.042;7.056;2023-03-01T01:02:23;10.60;;;6.37;;
4112;SDS011;2070;51.042;7.056;2023-03-01T01:04:48;8.60;;;5.13;;
4112;SDS011;2070;51.042;7.056;2023-03-01T01:07:14;5.97;;;3.90;;
4112;SDS011;2070;51.042;7.056;2023-03-01T01:09:39;11.43;;;4.77;;
4112;SDS011;2070;51.042;7.056;2023-03-01T01:12:05;10.60;;;4.80;;
4112;SDS011;2070;51.042;7.056;2023-03-01T01:14:30;7.47;;;4.93;;
4112;SDS011;2070;51.042;7.056;2023-03-01T01:16:55;9.40;;;4.90;;
4112;SDS011;2070;51.042;7.056;2023-03-01T01:19:21;20.53;;;6.40;;
4112;SDS011;2070;51.042;7.056;2023-03-01T01:21:46;7.40;;;4.87;;
4112;SDS011;2070;51.042;7.056;2023-03-01T01:24:13;9.73;;;5.03;;
4112;SDS011;2070;51.042;7.056;2023-03-01T01:26:38;10.57;;;4.67;;
4112;SDS011;2070;51.042;7.056;2023-03-01T01:29:03;6.73;;;4.47;;
4112;SDS011;2070;51.042;7.056;2023-03-01T01:31:29;7.23;;;4.67;;
4112;SDS011;2070;51.042;7.056;2023-03-01T01:33:55;16.77;;;4.73;;
4112;SDS011;2070;51.042;7.056;2023-03-01T01:36:20;7.30;;;4.43;;
4112;SDS011;2070;51.042;7.056;2023-03-01T01:38:46;10.67;;;4.77;;
4112;SDS011;2070;51.042;7.056;2023-03-01T01:41:12;6.60;;;5.10;;
4112;SDS011;2070;51.042;7.056;2023-03-01T01:43:42;11.87;;;4.63;;
4112;SDS011;2070;51.042;7.056;2023-03-01T01:46:14;9.17;;;5.23;;
4112;SDS011;2070;51.042;7.056;2023-03-01T01:48:42;9.70;;;4.90;;
4112;SDS011;2070;51.042;7.056;2023-03-01T01:51:16;9.63;;;4.40;;
4112;SDS011;2070;51.042;7.056;2023-03-01T01:53:43;10.50;;;6.10;;
4112;SDS011;2070;51.042;7.056;2023-03-01T01:56:09;7.23;;;4.90;;
4112;SDS011;2070;51.042;7.056;2023-03-01T01:58:36;6.87;;;4.10;;
4112;SDS011;2070;51.042;7.056;2023-03-01T02:01:02;6.40;;;4.83;;
4112;SDS011;2070;51.042;7.056;2023-03-01T02:03:29;6.17;;;4.10;;
4112;SDS011;2070;51.042;7.056;2023-03-01T02:06:04;8.13;;;4.90;;
4112;SDS011;2070;51.042;7.056;2023-03-01T02:08:31;14.17;;;6.50;;
4112;SDS011;2070;51.042;7.056;2023-03-01T02:10:58;7.00;;;4.37;;
4112;SDS011;2070;51.042;7.056;2023-03-01T02:13:25;7.23;;;4.17;;
4112;SDS011;2070;51.042;7.056;2023-03-01T02:15:50;12.33;;;4.90;;
4112;SDS011;2070;51.042;7.056;2023-03-01T02:18:17;7.33;;;4.73;;
4112;SDS011;2070;51.042;7.056;2023-03-01T02:23:27;6.43;;;4.73;;
4112;SDS011;2070;51.042;7.056;2023-03-01T02:25:57;10.23;;;5.37;;
4112;SDS011;2070;51.042;7.056;2023-03-01T02:28:26;7.60;;;4.70;;
4112;SDS011;2070;51.042;7.056;2023-03-01T02:30:58;11.83;;;4.73;;
4112;SDS011;2070;51.042;7.056;2023-03-01T02:33:42;8.03;;;5.13;;
4112;SDS011;2070;51.042;7.056;2023-03-01T02:36:12;11.40;;;5.40;;
4112;SDS011;2070;51.042;7.056;2023-03-01T02:38:39;13.83;;;4.80;;
4112;SDS011;2070;51.042;7.056;2023-03-01T02:41:05;8.80;;;4.53;;
4112;SDS011;2070;51.042;7.056;2023-03-01T02:43:31;9.40;;;5.60;;
4112;SDS011;2070;51.042;7.056;2023-03-01T02:45:59;9.60;;;4.90;;
4112;SDS011;2070;51.042;7.056;2023-03-01T02:48:27;19.27;;;6.80;;
4112;SDS011;2070;51.042;7.056;2023-03-01T02:53:34;8.77;;;5.93;;
4112;SDS011;2070;51.042;7.056;2023-03-01T02:56:03;12.13;;;5.87;;
4112;SDS011;2070;51.042;7.056;2023-03-01T02:58:29;7.73;;;5.50;;
4112;SDS011;2070;51.042;7.056;2023-03-01T03:00:54;12.70;;;6.30;;
4112;SDS011;2070;51.042;7.056;2023-03-01T03:03:20;11.17;;;6.70;;
4112;SDS011;2070;51.042;7.056;2023-03-01T03:05:46;11.20;;;5.93;;
4112;SDS011;2070;51.042;7.056;2023-03-01T03:08:12;12.77;;;6.50;;
4112;SDS011;2070;51.042;7.056;2023-03-01T03:10:39;9.87;;;4.53;;
4112;SDS011;2070;51.042;7.056;2023-03-01T03:13:06;7.83;;;4.97;;
4112;SDS011;2070;51.042;7.056;2023-03-01T03:15:32;11.60;;;5.50;;
4112;SDS011;2070;51.042;7.056;2023-03-01T03:18:00;9.47;;;5.23;;
4112;SDS011;2070;51.042;7.056;2023-03-01T03:20:26;10.73;;;5.83;;
4112;SDS011;2070;51.042;7.056;2023-03-01T03:22:52;8.47;;;5.97;;
4112;SDS011;2070;51.042;7.056;2023-03-01T03:25:18;8.50;;;5.80;;
4112;SDS011;2070;51.042;7.056;2023-03-01T03:27:44;14.10;;;7.03;;
4112;SDS011;2070;51.042;7.056;2023-03-01T03:30:12;6.80;;;4.70;;
4112;SDS011;2070;51.042;7.056;2023-03-01T03:32:38;8.60;;;5.10;;
4112;SDS011;2070;51.042;7.056;2023-03-01T03:35:04;6.90;;;5.40;;
4112;SDS011;2070;51.042;7.056;2023-03-01T03:37:35;13.40;;;6.23;;
4112;SDS011;2070;51.042;7.056;2023-03-01T03:40:19;7.07;;;5.43;;
4112;SDS011;2070;51.042;7.056;2023-03-01T03:42:44;14.03;;;5.87;;
4112;SDS011;2070;51.042;7.056;2023-03-01T03:45:09;7.50;;;4.17;;
4112;SDS011;2070;51.042;7.056;2023-03-01T03:47:35;19.00;;;5.67;;
4112;SDS011;2070;51.042;7.056;2023-03-01T03:50:00;14.90;;;7.10;;
4112;SDS011;2070;51.042;7.056;2023-03-01T03:52:25;16.50;;;6.00;;
4112;SDS011;2070;51.042;7.056;2023-03-01T03:54:50;8.50;;;5.67;;
4112;SDS011;2070;51.042;7.056;2023-03-01T03:57:15;12.23;;;5.90;;
4112;SDS011;2070;51.042;7.056;2023-03-01T03:59:41;10.33;;;6.90;;
4112;SDS011;2070;51.042;7.056;2023-03-01T04:02:06;11.40;;;6.43;;
4112;SDS011;2070;51.042;7.056;2023-03-01T04:04:33;17.63;;;6.30;;
4112;SDS011;2070;51.042;7.056;2023-03-01T04:06:59;17.60;;;6.83;;
4112;SDS011;2070;51.042;7.056;2023-03-01T04:09:24;11.57;;;5.97;;
4112;SDS011;2070;51.042;7.056;2023-03-01T04:11:49;11.90;;;7.07;;
4112;SDS011;2070;51.042;7.056;2023-03-01T04:14:14;8.10;;;5.77;;
4112;SDS011;2070;51.042;7.056;2023-03-01T04:16:39;11.90;;;6.57;;
4112;SDS011;2070;51.042;7.056;2023-03-01T04:19:05;13.30;;;6.40;;
4112;SDS011;2070;51.042;7.056;2023-03-01T04:21:31;7.70;;;5.27;;
4112;SDS011;2070;51.042;7.056;2023-03-01T04:23:56;6.10;;;5.17;;
4112;SDS011;2070;51.042;7.056;2023-03-01T04:26:21;16.20;;;6.03;;
4112;SDS011;2070;51.042;7.056;2023-03-01T04:28:47;6.33;;;5.03;;
4112;SDS011;2070;51.042;7.056;2023-03-01T04:31:15;11.10;;;5.97;;
4112;SDS011;2070;51.042;7.056;2023-03-01T04:33:48;15.60;;;5.90;;
4112;SDS011;2070;51.042;7.056;2023-03-01T04:36:16;8.73;;;5.50;;
4112;SDS011;2070;51.042;7.056;2023-03-01T04:38:42;13.27;;;7.03;;
4112;SDS011;2070;51.042;7.056;2023-03-01T04:41:08;11.63;;;7.30;;
4112;SDS011;2070;51.042;7.056;2023-03-01T04:43:34;11.73;;;7.57;;
4112;SDS011;2070;51.042;7.056;2023-03-01T04:46:00;7.30;;;6.00;;
4112;SDS011;2070;51.042;7.056;2023-03-01T04:48:27;16.40;;;9.23;;
4112;SDS011;2070;51.042;7.056;2023-03-01T04:50:52;11.87;;;7.00;;
4112;SDS011;2070;51.042;7.056;2023-03-01T04:53:17;10.57;;;6.73;;
4112;SDS011;2070;51.042;7.056;2023-03-01T04:55:43;16.30;;;8.43;;
4112;SDS011;2070;51.042;7.056;2023-03-01T04:58:08;11.57;;;7.23;;
4112;SDS011;2070;51.042;7.056;2023-03-01T05:00:34;13.43;;;8.57;;
4112;SDS011;2070;51.042;7.056;2023-03-01T05:03:00;12.93;;;6.60;;
4112;SDS011;2070;51.042;7.056;2023-03-01T05:05:30;23.50;;;7.53;;
4112;SDS011;2070;51.042;7.056;2023-03-01T05:07:56;10.87;;;6.33;;
4112;SDS011;2070;51.042;7.056;2023-03-01T05:10:22;11.77;;;6.90;;
4112;SDS011;2070;51.042;7.056;2023-03-01T05:12:47;16.63;;;7.20;;
4112;SDS011;2070;51.042;7.056;2023-03-01T05:15:12;14.50;;;7.00;;
4112;SDS011;2070;51.042;7.056;2023-03-01T05:17:38;17.07;;;8.87;;
4112;SDS011;2070;51.042;7.056;2023-03-01T05:20:03;10.10;;;7.20;;
4112;SDS011;2070;51.042;7.056;2023-03-01T05:22:33;16.43;;;7.17;;
4112;SDS011;2070;51.042;7.056;2023-03-01T05:24:58;11.93;;;7.13;;
4112;SDS011;2070;51.042;7.056;2023-03-01T05:27:23;15.00;;;7.43;;
4112;SDS011;2070;51.042;7.056;2023-03-01T05:29:48;12.27;;;7.77;;
4112;SDS011;2070;51.042;7.056;2023-03-01T05:32:14;21.10;;;9.50;;
4112;SDS011;2070;51.042;7.056;2023-03-01T05:34:40;11.70;;;7.07;;
4112;SDS011;2070;51.042;7.056;2023-03-01T05:37:06;22.73;;;8.10;;
4112;SDS011;2070;51.042;7.056;2023-03-01T05:39:32;15.70;;;7.10;;
4112;SDS011;2070;51.042;7.056;2023-03-01T05:41:58;15.67;;;6.93;;
4112;SDS011;2070;51.042;7.056;2023-03-01T05:44:24;9.03;;;6.20;;
4112;SDS011;2070;51.042;7.056;2023-03-01T05:46:50;10.23;;;6.87;;
4112;SDS011;2070;51.042;7.056;2023-03-01T05:49:15;16.07;;;8.00;;
4112;SDS011;2070;51.042;7.056;2023-03-01T05:51:41;25.33;;;8.53;;
4112;SDS011;2070;51.042;7.056;2023-03-01T05:54:06;16.03;;;8.60;;
4112;SDS011;2070;51.042;7.056;2023-03-01T05:56:33;12.87;;;7.07;;
4112;SDS011;2070;51.042;7.056;2023-03-01T05:58:59;14.73;;;6.97;;
4112;SDS011;2070;51.042;7.056;2023-03-01T06:01:24;9.60;;;7.03;;
4112;SDS011;2070;51.042;7.056;2023-03-01T06:03:49;11.40;;;6.23;;
4112;SDS011;2070;51.042;7.056;2023-03-01T06:06:14;15.10;;;6.80;;
4112;SDS011;2070;51.042;7.056;2023-03-01T06:08:39;14.80;;;6.23;;
4112;SDS011;2070;51.042;7.056;2023-03-01T06:11:05;21.93;;;8.10;;
4112;SDS011;2070;51.042;7.056;2023-03-01T06:13:32;15.30;;;7.63;;
4112;SDS011;2070;51.042;7.056;2023-03-01T06:15:57;13.93;;;6.77;;
4112;SDS011;2070;51.042;7.056;2023-03-01T06:18:22;25.63;;;8.40;;
4112;SDS011;2070;51.042;7.056;2023-03-01T06:20:54;17.03;;;8.10;;
4112;SDS011;2070;51.042;7.056;2023-03-01T06:23:19;14.60;;;6.60;;
4112;SDS011;2070;51.042;7.056;2023-03-01T06:25:44;13.50;;;8.40;;
4112;SDS011;2070;51.042;7.056;2023-03-01T06:28:10;19.83;;;8.43;;
4112;SDS011;2070;51.042;7.056;2023-03-01T06:30:35;16.33;;;7.90;;
4112;SDS011;2070;51.042;7.056;2023-03-01T06:33:00;11.67;;;7.27;;
4112;SDS011;2070;51.042;7.056;2023-03-01T06:35:28;19.70;;;8.00;;
4112;SDS011;2070;51.042;7.056;2023-03-01T06:37:55;13.30;;;8.17;;
4112;SDS011;2070;51.042;7.056;2023-03-01T06:40:20;15.97;;;7.27;;
4112;SDS011;2070;51.042;7.056;2023-03-01T06:42:47;15.83;;;8.40;;
4112;SDS011;2070;51.042;7.056;2023-03-01T06:45:14;14.27;;;8.73;;
4112;SDS011;2070;51.042;7.056;2023-03-01T06:47:39;3.90;;;3.60;;
4112;SDS011;2070;51.042;7.056;2023-03-01T06:50:04;16.03;;;8.03;;
4112;SDS011;2070;51.042;7.056;2023-03-01T06:52:30;14.60;;;7.40;;
4112;SDS011;2070;51.042;7.056;2023-03-01T06:54:55;14.60;;;6.90;;
4112;SDS011;2070;51.042;7.056;2023-03-01T06:57:20;19.60;;;7.70;;
4112;SDS011;2070;51.042;7.056;2023-03-01T06:59:46;17.70;;;8.43;;
4112;SDS011;2070;51.042;7.056;2023-03-01T07:02:11;12.50;;;7.30;;
4112;SDS011;2070;51.042;7.056;2023-03-01T07:04:38;12.70;;;7.70;;
4112;SDS011;2070;51.042;7.056;2023-03-01T07:07:03;19.03;;;7.67;;
4112;SDS011;2070;51.042;7.056;2023-03-01T07:09:28;18.33;;;9.30;;
4112;SDS011;2070;51.042;7.056;2023-03-01T07:11:54;15.20;;;7.90;;
4112;SDS011;2070;51.042;7.056;2023-03-01T07:14:19;16.50;;;8.30;;
4112;SDS011;2070;51.042;7.056;2023-03-01T07:16:45;12.23;;;8.70;;
4112;SDS011;2070;51.042;7.056;2023-03-01T07:19:10;15.00;;;7.47;;
4112;SDS011;2070;51.042;7.056;2023-03-01T07:21:35;14.60;;;6.93;;
4112;SDS011;2070;51.042;7.056;2023-03-01T07:24:01;15.30;;;8.23;;
4112;SDS011;2070;51.042;7.056;2023-03-01T07:26:26;19.67;;;8.40;;
4112;SDS011;2070;51.042;7.056;2023-03-01T07:28:52;19.70;;;7.73;;
4112;SDS011;2070;51.042;7.056;2023-03-01T07:31:17;16.53;;;8.40;;
4112;SDS011;2070;51.042;7.056;2023-03-01T07:33:42;18.30;;;9.37;;
4112;SDS011;2070;51.042;7.056;2023-03-01T07:36:07;12.20;;;5.87;;
4112;SDS011;2070;51.042;7.056;2023-03-01T07:38:33;11.17;;;6.20;;
4112;SDS011;2070;51.042;7.056;2023-03-01T07:40:59;9.97;;;7.90;;
4112;SDS011;2070;51.042;7.056;2023-03-01T07:43:25;13.30;;;6.70;;
4112;SDS011;2070;51.042;7.056;2023-03-01T07:45:50;12.87;;;7.20;;
4112;SDS011;2070;51.042;7.056;2023-03-01T07:48:16;27.43;;;13.53;;
4112;SDS011;2070;51.042;7.056;2023-03-01T07:50:41;12.60;;;7.90;;
4112;SDS011;2070;51.042;7.056;2023-03-01T07:53:06;12.67;;;7.30;;
4112;SDS011;2070;51.042;7.056;2023-03-01T07:55:32;15.03;;;7.97;;
4112;SDS011;2070;51.042;7.056;2023-03-01T07:57:57;10.97;;;6.57;;
4112;SDS011;2070;51.042;7.056;2023-03-01T08:00:22;10.27;;;6.73;;
4112;SDS011;2070;51.042;7.056;2023-03-01T08:02:47;10.77;;;6.40;;
4112;SDS011;2070;51.042;7.056;2023-03-01T08:05:13;14.63;;;7.40;;
4112;SDS011;2070;51.042;7.056;2023-03-01T08:07:38;11.43;;;7.03;;
4112;SDS011;2070;51.042;7.056;2023-03-01T08:10:03;8.30;;;5.90;;
4112;SDS011;2070;51.042;7.056;2023-03-01T08:12:28;10.50;;;6.53;;
4112;SDS011;2070;51.042;7.056;2023-03-01T08:14:54;11.90;;;6.80;;
4112;SDS011;2070;51.042;7.056;2023-03-01T08:17:19;11.07;;;7.13;;
4112;SDS011;2070;51.042;7.056;2023-03-01T08:19:45;12.00;;;7.10;;
4112;SDS011;2070;51.042;7.056;2023-03-01T08:22:10;15.03;;;8.07;;
4112;SDS011;2070;51.042;7.056;2023-03-01T08:24:35;10.63;;;6.90;;
4112;SDS011;2070;51.042;7.056;2023-03-01T08:27:00;15.00;;;7.50;;
4112;SDS011;2070;51.042;7.056;2023-03-01T08:29:27;14.17;;;7.37;;
4112;SDS011;2070;51.042;7.056;2023-03-01T08:31:53;10.43;;;6.43;;
4112;SDS011;2070;51.042;7.056;2023-03-01T08:34:18;16.90;;;7.00;;
4112;SDS011;2070;51.042;7.056;2023-03-01T08:36:44;10.50;;;7.63;;
4112;SDS011;2070;51.042;7.056;2023-03-01T08:39:13;13.47;;;6.30;;
4112;SDS011;2070;51.042;7.056;2023-03-01T08:41:38;10.73;;;6.80;;
4112;SDS011;2070;51.042;7.056;2023-03-01T08:44:04;12.10;;;7.07;;
4112;SDS011;2070;51.042;7.056;2023-03-01T08:46:30;11.57;;;7.17;;
4112;SDS011;2070;51.042;7.056;2023-03-01T08:48:56;11.30;;;7.07;;
4112;SDS011;2070;51.042;7.056;2023-03-01T08:51:22;10.70;;;7.27;;
4112;SDS011;2070;51.042;7.056;2023-03-01T08:53:47;23.63;;;8.90;;
4112;SDS011;2070;51.042;7.056;2023-03-01T08:56:13;8.70;;;6.40;;
4112;SDS011;2070;51.042;7.056;2023-03-01T08:58:38;11.17;;;6.60;;
4112;SDS011;2070;51.042;7.056;2023-03-01T09:01:08;9.30;;;6.60;;
4112;SDS011;2070;51.042;7.056;2023-03-01T09:03:33;9.97;;;6.87;;
4112;SDS011;2070;51.042;7.056;2023-03-01T09:06:01;13.07;;;6.50;;
4112;SDS011;2070;51.042;7.056;2023-03-01T09:08:26;13.57;;;8.10;;
4112;SDS011;2070;51.042;7.056;2023-03-01T09:10:52;10.23;;;6.93;;
4112;SDS011;2070;51.042;7.056;2023-03-01T09:13:17;12.50;;;7.30;;
4112;SDS011;2070;51.042;7.056;2023-03-01T09:15:42;11.67;;;6.93;;
4112;SDS011;2070;51.042;7.056;2023-03-01T09:18:07;11.73;;;6.10;;
4112;SDS011;2070;51.042;7.056;2023-03-01T09:20:32;16.30;;;7.50;;
4112;SDS011;2070;51.042;7.056;2023-03-01T09:22:58;18.27;;;7.20;;
4112;SDS011;2070;51.042;7.056;2023-03-01T09:25:23;8.80;;;6.20;;
4112;SDS011;2070;51.042;7.056;2023-03-01T09:27:52;8.67;;;6.47;;
4112;SDS011;2070;51.042;7.056;2023-03-01T09:30:17;11.43;;;6.77;;
4112;SDS011;2070;51.042;7.056;2023-03-01T09:32:42;9.13;;;6.30;;
4112;SDS011;2070;51.042;7.056;2023-03-01T09:35:09;11.60;;;7.87;;
4112;SDS011;2070;51.042;7.056;2023-03-01T09:37:35;11.67;;;6.83;;
4112;SDS011;2070;51.042;7.056;2023-03-01T09:40:01;14.63;;;6.63;;
4112;SDS011;2070;51.042;7.056;2023-03-01T09:42:27;14.17;;;6.53;;
4112;SDS011;2070;51.042;7.056;2023-03-01T09:44:54;15.33;;;7.30;;
4112;SDS011;2070;51.042;7.056;2023-03-01T09:47:32;11.77;;;6.93;;
4112;SDS011;2070;51.042;7.056;2023-03-01T09:50:32;7.63;;;6.07;;
4112;SDS011;2070;51.042;7.056;2023-03-01T09:53:00;8.50;;;6.33;;
4112;SDS011;2070;51.042;7.056;2023-03-01T09:55:45;10.17;;;6.60;;
4112;SDS011;2070;51.042;7.056;2023-03-01T10:00:50;15.03;;;7.33;;
4112;SDS011;2070;51.042;7.056;2023-03-01T10:05:56;10.10;;;6.70;;
4112;SDS011;2070;51.042;7.056;2023-03-01T10:08:29;8.57;;;5.40;;
4112;SDS011;2070;51.042;7.056;2023-03-01T10:10:58;10.50;;;7.23;;
4112;SDS011;2070;51.042;7.056;2023-03-01T10:13:25;12.17;;;7.30;;
4112;SDS011;2070;51.042;7.056;2023-03-01T10:15:54;11.93;;;7.13;;
4112;SDS011;2070;51.042;7.056;2023-03-01T10:18:21;15.30;;;7.50;;
4112;SDS011;2070;51.042;7.056;2023-03-01T10:20:57;9.87;;;6.67;;
4112;SDS011;2070;51.042;7.056;2023-03-01T10:23:24;8.80;;;6.07;;
4112;SDS011;2070;51.042;7.056;2023-03-01T10:28:40;11.90;;;6.90;;
4112;SDS011;2070;51.042;7.056;2023-03-01T10:31:15;7.53;;;6.10;;
4112;SDS011;2070;51.042;7.056;2023-03-01T10:33:43;7.00;;;5.93;;
4112;SDS011;2070;51.042;7.056;2023-03-01T10:36:08;8.70;;;6.33;;
4112;SDS011;2070;51.042;7.056;2023-03-01T10:38:53;9.43;;;6.10;;
4112;SDS011;2070;51.042;7.056;2023-03-01T10:41:19;10.23;;;6.60;;
4112;SDS011;2070;51.042;7.056;2023-03-01T10:49:05;9.53;;;6.27;;
4112;SDS011;2070;51.042;7.056;2023-03-01T10:51:30;12.70;;;7.73;;
4112;SDS011;2070;51.042;7.056;2023-03-01T10:53:56;11.67;;;6.87;;
4112;SDS011;2070;51.042;7.056;2023-03-01T10:56:21;10.20;;;6.20;;
4112;SDS011;2070;51.042;7.056;2023-03-01T10:58:59;12.23;;;8.27;;
4112;SDS011;2070;51.042;7.056;2023-03-01T11:01:34;25.37;;;6.67;;
4112;SDS011;2070;51.042;7.056;2023-03-01T11:06:28;10.60;;;6.20;;
4112;SDS011;2070;51.042;7.056;2023-03-01T11:08:53;16.03;;;7.90;;
4112;SDS011;2070;51.042;7.056;2023-03-01T11:16:15;11.23;;;7.20;;
4112;SDS011;2070;51.042;7.056;2023-03-01T11:18:48;15.50;;;7.00;;
4112;SDS011;2070;51.042;7.056;2023-03-01T11:21:20;12.80;;;6.57;;
4112;SDS011;2070;51.042;7.056;2023-03-01T11:23:45;8.03;;;5.50;;
4112;SDS011;2070;51.042;7.056;2023-03-01T11:26:11;8.93;;;5.90;;
4112;SDS011;2070;51.042;7.056;2023-03-01T11:28:37;12.43;;;6.70;;
4112;SDS011;2070;51.042;7.056;2023-03-01T11:31:08;19.63;;;7.53;;
4112;SDS011;2070;51.042;7.056;2023-03-01T11:38:30;13.77;;;6.77;;
4112;SDS011;2070;51.042;7.056;2023-03-01T11:40:59;13.63;;;6.90;;
4112;SDS011;2070;51.042;7.056;2023-03-01T11:43:36;14.20;;;7.93;;
4112;SDS011;2070;51.042;7.056;2023-03-01T11:46:27;9.30;;;6.00;;
4112;SDS011;2070;51.042;7.056;2023-03-01T11:54:00;8.77;;;5.43;;
4112;SDS011;2070;51.042;7.056;2023-03-01T12:04:22;12.13;;;6.03;;
4112;SDS011;2070;51.042;7.056;2023-03-01T12:17:20;7.97;;;5.27;;
4112;SDS011;2070;51.042;7.056;2023-03-01T12:22:32;17.13;;;5.73;;
4112;SDS011;2070;51.042;7.056;2023-03-01T12:32:38;10.83;;;5.20;;
4112;SDS011;2070;51.042;7.056;2023-03-01T12:35:11;8.50;;;6.43;;
4112;SDS011;2070;51.042;7.056;2023-03-01T12:50:34;12.97;;;6.37;;
4112;SDS011;2070;51.042;7.056;2023-03-01T12:53:02;14.63;;;6.40;;
4112;SDS011;2070;51.042;7.056;2023-03-01T12:55:34;9.17;;;5.93;;
4112;SDS011;2070;51.042;7.056;2023-03-01T12:58:08;8.27;;;4.87;;
4112;SDS011;2070;51.042;7.056;2023-03-01T13:03:15;12.60;;;6.50;;
4112;SDS011;2070;51.042;7.056;2023-03-01T13:08:16;9.23;;;5.80;;
4112;SDS011;2070;51.042;7.056;2023-03-01T13:10:50;10.30;;;5.97;;
4112;SDS011;2070;51.042;7.056;2023-03-01T13:13:21;7.67;;;6.00;;
4112;SDS011;2070;51.042;7.056;2023-03-01T13:15:47;14.43;;;6.77;;
4112;SDS011;2070;51.042;7.056;2023-03-01T13:30:58;7.17;;;4.70;;
4112;SDS011;2070;51.042;7.056;2023-03-01T13:35:52;8.80;;;5.60;;
4112;SDS011;2070;51.042;7.056;2023-03-01T13:38:36;9.60;;;5.40;;
4112;SDS011;2070;51.042;7.056;2023-03-01T13:41:02;9.97;;;5.50;;
4112;SDS011;2070;51.042;7.056;2023-03-01T13:43:46;6.33;;;4.83;;
4112;SDS011;2070;51.042;7.056;2023-03-01T13:46:15;9.30;;;5.50;;
4112;SDS011;2070;51.042;7.056;2023-03-01T13:48:42;9.07;;;5.60;;
4112;SDS011;2070;51.042;7.056;2023-03-01T13:51:09;14.30;;;5.93;;
4112;SDS011;2070;51.042;7.056;2023-03-01T13:53:36;11.63;;;5.77;;
4112;SDS011;2070;51.042;7.056;2023-03-01T13:56:17;7.50;;;4.10;;
4112;SDS011;2070;51.042;7.056;2023-03-01T13:58:48;11.70;;;5.87;;
4112;SDS011;2070;51.042;7.056;2023-03-01T14:01:20;12.40;;;5.70;;
4112;SDS011;2070;51.042;7.056;2023-03-01T14:03:45;10.90;;;6.00;;
4112;SDS011;2070;51.042;7.056;2023-03-01T14:06:15;9.97;;;5.90;;
4112;SDS011;2070;51.042;7.056;2023-03-01T14:08:42;10.33;;;3.40;;
4112;SDS011;2070;51.042;7.056;2023-03-01T14:19:12;23.47;;;6.50;;
4112;SDS011;2070;51.042;7.056;2023-03-01T14:21:41;11.03;;;5.97;;
4112;SDS011;2070;51.042;7.056;2023-03-01T14:24:13;8.80;;;5.53;;
4112;SDS011;2070;51.042;7.056;2023-03-01T14:26:40;10.30;;;4.70;;
4112;SDS011;2070;51.042;7.056;2023-03-01T14:29:05;13.60;;;3.70;;
4112;SDS011;2070;51.042;7.056;2023-03-01T14:33:55;12.60;;;5.50;;
4112;SDS011;2070;51.042;7.056;2023-03-01T14:36:26;10.73;;;6.03;;
4112;SDS011;2070;51.042;7.056;2023-03-01T14:38:51;7.80;;;4.40;;
4112;SDS011;2070;51.042;7.056;2023-03-01T14:41:18;12.17;;;6.70;;
4112;SDS011;2070;51.042;7.056;2023-03-01T14:43:45;12.63;;;5.40;;
4112;SDS011;2070;51.042;7.056;2023-03-01T14:46:45;11.70;;;5.10;;
4112;SDS011;2070;51.042;7.056;2023-03-01T14:49:04;18.70;;;7.00;;
4112;SDS011;2070;51.042;7.056;2023-03-01T14:51:35;7.43;;;5.07;;
4112;SDS011;2070;51.042;7.056;2023-03-01T14:54:00;11.30;;;6.00;;
4112;SDS011;2070;51.042;7.056;2023-03-01T14:56:25;6.60;;;5.77;;
4112;SDS011;2070;51.042;7.056;2023-03-01T14:58:51;10.50;;;5.17;;
4112;SDS011;2070;51.042;7.056;2023-03-01T15:01:17;10.30;;;5.27;;
4112;SDS011;2070;51.042;7.056;2023-03-01T15:03:43;9.17;;;6.43;;
4112;SDS011;2070;51.042;7.056;2023-03-01T15:06:09;11.53;;;6.20;;
4112;SDS011;2070;51.042;7.056;2023-03-01T15:08:35;12.00;;;5.73;;
4112;SDS011;2070;51.042;7.056;2023-03-01T15:13:32;10.20;;;5.93;;
4112;SDS011;2070;51.042;7.056;2023-03-01T15:16:40;8.43;;;5.30;;
4112;SDS011;2070;51.042;7.056;2023-03-01T15:18:46;9.73;;;6.60;;
4112;SDS011;2070;51.042;7.056;2023-03-01T15:21:17;37.57;;;6.67;;
4112;SDS011;2070;51.042;7.056;2023-03-01T15:23:47;5.53;;;4.00;;
4112;SDS011;2070;51.042;7.056;2023-03-01T15:26:23;13.80;;;5.47;;
4112;SDS011;2070;51.042;7.056;2023-03-01T15:28:49;21.93;;;5.77;;
4112;SDS011;2070;51.042;7.056;2023-03-01T15:31:22;7.63;;;4.87;;
4112;SDS011;2070;51.042;7.056;2023-03-01T15:33:48;21.10;;;6.03;;
4112;SDS011;2070;51.042;7.056;2023-03-01T15:36:29;12.27;;;5.60;;
4112;SDS011;2070;51.042;7.056;2023-03-01T15:38:56;12.10;;;5.57;;
4112;SDS011;2070;51.042;7.056;2023-03-01T15:41:30;19.80;;;6.47;;
4112;SDS011;2070;51.042;7.056;2023-03-01T15:43:59;12.20;;;5.10;;
4112;SDS011;2070;51.042;7.056;2023-03-01T15:48:59;7.80;;;4.83;;
4112;SDS011;2070;51.042;7.056;2023-03-01T15:51:42;7.20;;;4.40;;
4112;SDS011;2070;51.042;7.056;2023-03-01T15:54:16;13.03;;;5.70;;
4112;SDS011;2070;51.042;7.056;2023-03-01T15:56:42;5.87;;;4.80;;
4112;SDS011;2070;51.042;7.056;2023-03-01T15:59:08;10.20;;;4.47;;
4112;SDS011;2070;51.042;7.056;2023-03-01T16:01:36;9.33;;;4.40;;
4112;SDS011;2070;51.042;7.056;2023-03-01T16:04:01;5.60;;;4.70;;
4112;SDS011;2070;51.042;7.056;2023-03-01T16:06:27;8.83;;;3.70;;
4112;SDS011;2070;51.042;7.056;2023-03-01T16:08:52;6.50;;;4.50;;
4112;SDS011;2070;51.042;7.056;2023-03-01T16:11:18;5.77;;;4.40;;
4112;SDS011;2070;51.042;7.056;2023-03-01T16:13:43;8.50;;;5.30;;
4112;SDS011;2070;51.042;7.056;2023-03-01T16:16:12;8.37;;;4.73;;
4112;SDS011;2070;51.042;7.056;2023-03-01T16:18:40;11.50;;;5.30;;
4112;SDS011;2070;51.042;7.056;2023-03-01T16:21:05;9.40;;;4.60;;
4112;SDS011;2070;51.042;7.056;2023-03-01T16:23:31;15.40;;;5.10;;
4112;SDS011;2070;51.042;7.056;2023-03-01T16:25:59;10.33;;;5.13;;
4112;SDS011;2070;51.042;7.056;2023-03-01T16:28:25;8.53;;;4.77;;
4112;SDS011;2070;51.042;7.056;2023-03-01T16:30:51;20.83;;;3.43;;
4112;SDS011;2070;51.042;7.056;2023-03-01T16:33:16;9.67;;;4.20;;
4112;SDS011;2070;51.042;7.056;2023-03-01T16:35:42;6.10;;;3.40;;
4112;SDS011;2070;51.042;7.056;2023-03-01T16:38:08;9.50;;;5.13;;
4112;SDS011;2070;51.042;7.056;2023-03-01T16:40:33;7.23;;;4.43;;
4112;SDS011;2070;51.042;7.056;2023-03-01T16:42:58;6.67;;;4.23;;
4112;SDS011;2070;51.042;7.056;2023-03-01T16:45:24;10.70;;;4.30;;
4112;SDS011;2070;51.042;7.056;2023-03-01T16:47:50;10.27;;;4.83;;
4112;SDS011;2070;51.042;7.056;2023-03-01T16:50:15;14.90;;;6.33;;
4112;SDS011;2070;51.042;7.056;2023-03-01T16:52:40;8.17;;;4.40;;
4112;SDS011;2070;51.042;7.056;2023-03-01T16:55:06;8.27;;;5.10;;
4112;SDS011;2070;51.042;7.056;2023-03-01T16:57:35;9.37;;;5.27;;
4112;SDS011;2070;51.042;7.056;2023-03-01T17:00:01;8.80;;;4.23;;
4112;SDS011;2070;51.042;7.056;2023-03-01T17:02:33;7.47;;;4.53;;